Time;durP1;ratioP1;P1;durP2;ratioP2;P2;SDS_P1;SDS_P2;PMS_P1;PMS_P2;Temp;Humidity;BMP_temperature;BMP_pressure;BME280_temperature;BME280_humidity;BME280_pressure;Samples;Min_cycle;Max_cycle;Signal;HPM_P1;HPM_P2
2022/10/18 00:00:15;;;;;;;;;;;;;;;6.15;100.00;100436.41;4985097;28;19929;-83
2022/10/18 00:02:41;;;;;;;;;;;;;;;6.25;100.00;100424.00;4985814;28;20004;-84
2022/10/18 00:05:06;;;;;;;;;;;;;;;6.43;100.00;100422.84;4984713;28;20010;-84
2022/10/18 00:07:31;;;;;;;;;;;;;;;6.37;100.00;100425.59;4985698;28;19918;-83
2022/10/18 00:09:56;;;;;;;;;;;;;;;6.41;100.00;100429.03;4985583;28;19918;-84
2022/10/18 00:12:22;;;;;;;;;;;;;;;6.46;100.00;100421.91;4984404;28;19918;-84
2022/10/18 00:14:48;;;;;;;;;;;;;;;6.40;100.00;100429.91;4985928;28;20361;-84
2022/10/18 00:17:14;;;;;;;;;;;;;;;6.46;100.00;100432.44;4967147;28;19929;-84
2022/10/18 00:19:39;;;;;;;;;;;;;;;6.35;100.00;100430.88;4985965;28;19914;-84
2022/10/18 00:22:04;;;;;;;;;;;;;;;6.45;100.00;100436.00;4968291;28;19918;-84
2022/10/18 00:24:29;;;;;;;;;;;;;;;6.53;100.00;100428.84;4985500;28;19961;-84
2022/10/18 00:26:55;;;;;;;;;;;;;;;6.63;100.00;100422.53;4984192;28;19922;-83
2022/10/18 00:29:20;;;;;;;;;;;;;;;6.62;100.00;100412.00;4986049;28;20341;-83
2022/10/18 00:31:45;;;;;;;;;;;;;;;6.63;100.00;100409.34;4982675;28;19986;-88
2022/10/18 05:20:39;;;;;;;;;;;;;;;6.02;100.00;100478.72;5449610;23;19925;-85
2022/10/18 05:23:04;;;;;;;;;;;;;;;6.08;100.00;100479.50;5007531;28;19922;-86
2022/10/18 05:25:29;;;;;;;;;;;;;;;6.09;100.00;100483.84;5007813;28;19917;-81
2022/10/18 05:27:55;;;;;;;;;;;;;;;6.09;100.00;100490.88;5007504;28;19921;-86
2022/10/18 05:30:21;;;;;;;;;;;;;;;6.06;100.00;100490.94;4985943;28;20412;-85
2022/10/18 05:32:46;;;;;;;;;;;;;;;6.11;100.00;100502.25;5005762;28;19921;-84
2022/10/18 05:35:11;;;;;;;;;;;;;;;6.15;100.00;100493.44;4995228;28;19922;-84
2022/10/18 05:37:36;;;;;;;;;;;;;;;6.11;100.00;100491.72;4996132;28;19969;-85
2022/10/18 05:40:02;;;;;;;;;;;;;;;6.11;100.00;100491.72;5007343;28;19926;-81
2022/10/18 05:42:27;;;;;;;;;;;;;;;6.13;100.00;100492.59;5006917;28;19926;-86
2022/10/18 05:44:52;;;;;;;;;;;;;;;6.17;100.00;100489.91;4995192;28;19924;-83
2022/10/18 05:47:17;;;;;;;;;;;;;;;6.12;100.00;100498.75;4995935;28;19918;-83
2022/10/18 05:49:43;;;;;;;;;;;;;;;6.20;100.00;100496.03;4996506;28;20342;-84
2022/10/18 05:52:08;;;;;;;;;;;;;;;6.26;100.00;100491.53;4998048;28;19965;-84
2022/10/18 05:54:33;;;;;;;;;;;;;;;6.14;100.00;100486.44;4997721;28;19918;-86
2022/10/18 05:56:59;;;;;;;;;;;;;;;6.17;100.00;100492.56;4998221;28;19918;-85
2022/10/18 05:59:24;;;;;;;;;;;;;;;6.24;100.00;100495.06;4995947;28;19924;-85
2022/10/18 06:01:50;;;;;;;;;;;;;;;6.17;100.00;100502.19;4976709;28;19918;-86
2022/10/18 06:04:16;;;;;;;;;;;;;;;6.17;100.00;100507.44;4996292;28;20386;-86
2022/10/18 06:06:42;;;;;;;;;;;;;;;6.19;100.00;100503.06;5006539;28;19921;-85
2022/10/18 06:09:07;;;;;;;;;;;;;;;6.21;100.00;100516.16;4986265;28;20270;-83
2022/10/18 06:11:33;;;;;;;;;;;;;;;6.18;100.00;100511.81;4995831;28;19964;-84
2022/10/18 06:13:59;;;;;;;;;;;;;;;6.22;100.00;100512.66;4997540;28;19939;-83
2022/10/18 06:16:26;;;;;;;;;;;;;;;6.10;100.00;100521.59;4997192;28;19924;-84
2022/10/18 06:18:55;;;;;;;;;;;;;;;6.16;100.00;100521.50;4997441;28;20392;-84
2022/10/18 06:21:21;;;;;;;;;;;;;;;6.17;100.00;100520.59;4994062;28;19925;-83
2022/10/18 06:23:49;;;;;;;;;;;;;;;6.20;100.00;100519.72;4992267;28;20284;-84
2022/10/18 06:26:15;;;;;;;;;;;;;;;6.18;100.00;100519.72;4993128;28;19920;-84
2022/10/18 06:28:40;;;;;;;;;;;;;;;6.15;100.00;100520.63;4992908;28;19921;-83
2022/10/18 06:31:06;;;;;;;;;;;;;;;6.20;100.00;100528.47;4992072;28;19918;-83
2022/10/18 06:33:32;;;;;;;;;;;;;;;6.19;100.00;100526.75;4992884;28;19921;-83
2022/10/18 06:35:58;;;;;;;;;;;;;;;6.17;100.00;100529.38;4991654;28;19925;-84
2022/10/18 06:38:24;;;;;;;;;;;;;;;6.11;100.00;100531.19;4983573;28;20293;-87
2022/10/18 06:40:50;;;;;;;;;;;;;;;6.18;100.00;100535.50;4992842;28;19929;-87
2022/10/18 06:43:15;;;;;;;;;;;;;;;6.16;100.00;100539.94;4992484;28;19918;-86
2022/10/18 06:45:40;;;;;;;;;;;;;;;6.13;100.00;100540.84;4992632;28;19929;-86
2022/10/18 06:48:05;;;;;;;;;;;;;;;6.15;100.00;100546.06;4992649;28;19917;-85
2022/10/18 06:50:31;;;;;;;;;;;;;;;6.11;100.00;100545.25;4991339;28;19918;-83
2022/10/18 06:52:57;;;;;;;;;;;;;;;5.99;100.00;100543.63;4992787;28;20001;-83
2022/10/18 06:55:22;;;;;;;;;;;;;;;6.11;100.00;100541.72;4992888;28;20362;-84
2022/10/18 06:57:47;;;;;;;;;;;;;;;6.12;100.00;100543.47;4992669;28;19917;-83
2022/10/18 07:00:13;;;;;;;;;;;;;;;6.09;100.00;100543.50;4992427;28;19925;-83
2022/10/18 07:02:40;;;;;;;;;;;;;;;6.00;100.00;100555.91;4991774;28;20373;-83
2022/10/18 07:05:06;;;;;;;;;;;;;;;6.04;100.00;100556.72;4991173;28;20281;-85
2022/10/18 07:07:31;;;;;;;;;;;;;;;6.13;100.00;100555.75;4974955;28;19929;-86
2022/10/18 07:09:56;;;;;;;;;;;;;;;6.10;100.00;100556.66;4992416;28;19925;-83
2022/10/18 07:12:21;;;;;;;;;;;;;;;6.08;100.00;100562.81;4992928;28;20264;-85
2022/10/18 07:14:47;;;;;;;;;;;;;;;6.09;100.00;100554.03;4974857;28;19928;-84
2022/10/18 07:53:56;;;;;;;;;;;;;;;6.10;100.00;100598.75;5077729;23;19940;-90
2022/10/18 07:56:20;;;;;;;;;;;;;;;6.17;100.00;100599.56;4988437;28;19929;-86
2022/10/18 07:58:47;;;;;;;;;;;;;;;6.16;100.00;100614.47;4988921;28;19922;-86
2022/10/18 08:01:14;;;;;;;;;;;;;;;6.15;100.00;100609.22;4991307;28;19929;-86
2022/10/18 08:04:03;;;;;;;;;;;;;;;6.17;100.00;100615.34;4976412;28;19957;-87
2022/10/18 08:06:28;;;;;;;;;;;;;;;6.17;100.00;100621.50;4991433;28;20270;-86
2022/10/18 08:08:53;;;;;;;;;;;;;;;6.17;100.00;100618.88;4993723;28;19990;-87
2022/10/18 08:11:22;;;;;;;;;;;;;;;6.14;100.00;100620.63;4975755;28;19972;-86
2022/10/18 08:13:47;;;;;;;;;;;;;;;6.19;100.00;100624.09;4989109;28;19922;-86
2022/10/18 08:16:14;;;;;;;;;;;;;;;6.17;100.00;100625.88;4991741;28;20017;-87
2022/10/18 08:18:40;;;;;;;;;;;;;;;6.13;100.00;100621.53;4977859;28;20000;-87
2022/10/18 08:21:06;;;;;;;;;;;;;;;6.11;100.00;100620.66;4989998;28;20028;-86
2022/10/18 08:23:31;;;;;;;;;;;;;;;6.20;100.00;100628.47;4993110;28;20296;-87
2022/10/18 08:26:04;;;;;;;;;;;;;;;6.19;100.00;100624.09;4974504;28;19926;-87
2022/10/18 08:28:29;;;;;;;;;;;;;;;6.16;100.00;100627.63;4990793;28;20420;-87
2022/10/18 08:30:55;;;;;;;;;;;;;;;6.17;100.00;100632.03;4992366;28;20033;-87
2022/10/18 08:33:20;;;;;;;;;;;;;;;6.18;100.00;100619.72;4993411;28;19925;-86
2022/10/18 08:35:55;;;;;;;;;;;;;;;6.22;100.00;100628.44;4992581;28;19929;-86
2022/10/18 08:38:20;;;;;;;;;;;;;;;6.10;100.00;100627.69;4976203;28;19926;-87
2022/10/18 08:40:46;;;;;;;;;;;;;;;6.14;100.00;100620.63;4994082;28;19918;-88
2022/10/18 08:43:30;;;;;;;;;;;;;;;6.14;100.00;100628.53;4989650;28;19922;-87
2022/10/18 08:45:58;;;;;;;;;;;;;;;6.18;100.00;100630.25;4990364;28;19921;-86
2022/10/18 08:48:24;;;;;;;;;;;;;;;6.17;100.00;100636.38;4951947;28;19982;-87
2022/10/18 08:50:50;;;;;;;;;;;;;;;6.12;100.00;100638.22;4952286;28;19930;-88
2022/10/18 08:53:23;;;;;;;;;;;;;;;6.09;100.00;100639.09;4953120;28;19926;-88
2022/10/18 08:55:51;;;;;;;;;;;;;;;6.08;100.00;100647.91;4969507;28;19932;-87
2022/10/18 08:58:19;;;;;;;;;;;;;;;6.24;100.00;100647.72;4960901;28;19926;-87
2022/10/18 09:01:02;;;;;;;;;;;;;;;6.16;100.00;100646.06;4971694;28;19929;-87
2022/10/18 09:03:47;;;;;;;;;;;;;;;6.15;100.00;100656.59;4972730;28;19931;-89
2022/10/18 09:06:19;;;;;;;;;;;;;;;6.20;100.00;100646.88;4954107;28;19926;-87
2022/10/18 09:09:02;;;;;;;;;;;;;;;6.18;100.00;100648.66;4972360;28;19945;-90
2022/10/18 09:11:28;;;;;;;;;;;;;;;6.20;100.00;100640.75;4954001;28;19926;-89
2022/10/18 09:14:05;;;;;;;;;;;;;;;6.18;100.00;100646.03;4954832;28;19937;-87
2022/10/18 09:16:38;;;;;;;;;;;;;;;6.21;100.00;100648.63;4954293;28;19968;-87
2022/10/18 09:19:26;;;;;;;;;;;;;;;6.22;100.00;100639.84;4981190;28;19926;-88
2022/10/18 09:21:53;;;;;;;;;;;;;;;6.23;100.00;100644.22;5006572;28;19925;-88
2022/10/18 09:24:26;;;;;;;;;;;;;;;6.22;100.00;100644.25;5001049;28;19979;-88
2022/10/18 09:26:55;;;;;;;;;;;;;;;6.22;100.00;100652.13;4993741;28;20035;-86
2022/10/18 09:29:27;;;;;;;;;;;;;;;6.26;100.00;100652.09;5011253;28;20376;-87
2022/10/18 09:32:10;;;;;;;;;;;;;;;6.26;100.00;100643.31;4994706;28;20373;-87
2022/10/18 09:34:39;;;;;;;;;;;;;;;6.24;100.00;100643.34;5011523;28;20367;-87
2022/10/18 09:37:10;;;;;;;;;;;;;;;6.26;100.00;100651.22;4993678;28;20380;-88
2022/10/18 09:39:39;;;;;;;;;;;;;;;6.23;100.00;100648.63;4991854;28;19928;-89
2022/10/18 09:42:15;;;;;;;;;;;;;;;6.24;100.00;100648.59;4996061;28;19922;-91
2022/10/18 09:44:43;;;;;;;;;;;;;;;6.24;100.00;100647.72;5011262;28;20009;-87
2022/10/18 09:47:23;;;;;;;;;;;;;;;6.20;100.00;100646.88;5004284;28;19917;-87
2022/10/18 09:49:53;;;;;;;;;;;;;;;6.27;100.00;100650.31;4993227;28;19929;-88
2022/10/18 09:52:26;;;;;;;;;;;;;;;6.20;100.00;100646.88;4991756;28;19976;-89
2022/10/18 09:55:00;;;;;;;;;;;;;;;6.23;100.00;100654.75;5011613;28;19921;-89
2022/10/18 09:57:34;;;;;;;;;;;;;;;6.22;100.00;100653.00;4993491;28;19932;-87
2022/10/18 10:00:00;;;;;;;;;;;;;;;6.19;100.00;100658.31;4992637;28;19928;-88
2022/10/18 10:02:25;;;;;;;;;;;;;;;6.20;100.00;100657.41;4994312;28;20586;-89
2022/10/18 10:04:53;;;;;;;;;;;;;;;6.17;100.00;100665.34;4993538;28;19921;-88
2022/10/18 10:07:35;;;;;;;;;;;;;;;6.15;100.00;100662.72;5011877;28;20467;-89
2022/10/18 10:10:03;;;;;;;;;;;;;;;6.15;100.00;100669.75;4994998;28;19921;-88
2022/10/18 10:12:30;;;;;;;;;;;;;;;6.23;100.00;100661.78;5003349;28;20364;-89
2022/10/18 10:15:17;;;;;;;;;;;;;;;6.20;100.00;100667.94;4991111;28;20395;-95
2022/10/18 10:17:43;;;;;;;;;;;;;;;6.21;100.00;100659.16;4994328;28;19953;-89
2022/10/18 10:20:18;;;;;;;;;;;;;;;6.20;100.00;100670.56;5009664;28;19960;-90
2022/10/18 10:22:44;;;;;;;;;;;;;;;6.25;100.00;100663.50;4990592;28;19922;-89
2022/10/18 10:25:20;;;;;;;;;;;;;;;6.26;100.00;100665.25;5012796;28;19925;-88
2022/10/18 10:27:45;;;;;;;;;;;;;;;6.24;100.00;100661.78;4993957;28;19925;-88
2022/10/18 10:30:27;;;;;;;;;;;;;;;6.20;100.00;100661.81;4992311;28;20684;-88
2022/10/18 10:32:53;;;;;;;;;;;;;;;6.22;100.00;100671.41;5007678;28;20376;-88
2022/10/18 10:35:28;;;;;;;;;;;;;;;6.20;100.00;100672.34;4993297;28;19952;-92
2022/10/18 10:37:53;;;;;;;;;;;;;;;6.16;100.00;100680.28;4991432;28;19921;-89
2022/10/18 10:40:26;;;;;;;;;;;;;;;6.22;100.00;100675.81;4992007;28;20516;-89
2022/10/18 10:43:06;;;;;;;;;;;;;;;6.15;100.00;100673.25;4993475;28;19922;-88
2022/10/18 10:45:34;;;;;;;;;;;;;;;6.28;100.00;100673.97;5010710;28;19929;-89
2022/10/18 10:48:18;;;;;;;;;;;;;;;6.27;100.00;100679.25;5012871;28;19964;-89
2022/10/18 10:51:05;;;;;;;;;;;;;;;;;;;;;
2022/10/18 10:53:56;;;;;;;;;;;;;;;6.28;100.00;100684.50;5010839;28;19932;-95
2022/10/18 10:56:29;;;;;;;;;;;;;;;6.19;100.00;100682.00;4986014;28;19922;-89
2022/10/18 10:58:57;;;;;;;;;;;;;;;6.24;100.00;100689.81;4991679;28;19922;-88
2022/10/18 11:01:24;;;;;;;;;;;;;;;6.24;100.00;100684.56;4973027;28;19961;-88
2022/10/18 11:03:52;;;;;;;;;;;;;;;6.21;100.00;100680.22;4991054;28;19921;-89
2022/10/18 11:06:36;;;;;;;;;;;;;;;6.27;100.00;100685.44;4990600;28;20377;-89
2022/10/18 11:09:03;;;;;;;;;;;;;;;6.25;100.00;100687.19;4991911;28;19926;-90
2022/10/18 11:11:48;;;;;;;;;;;;;;;6.24;100.00;100680.19;4974755;28;19922;-87
2022/10/18 11:14:21;;;;;;;;;;;;;;;6.17;100.00;100678.50;4993372;28;20436;-92
2022/10/18 11:17:02;;;;;;;;;;;;;;;6.23;100.00;100685.47;4991487;28;19922;-90
2022/10/18 11:19:38;;;;;;;;;;;;;;;6.20;100.00;100689.00;4991657;28;20388;-93
2022/10/18 11:22:05;;;;;;;;;;;;;;;13.23;100.00;100671.56;4991805;28;19973;-85
2022/10/18 11:24:30;;;;;;;;;;;;;;;12.16;100.00;100676.47;4974634;28;19995;-89
2022/10/18 11:27:05;;;;;;;;;;;;;;;8.50;100.00;100683.78;4991543;28;20020;-89
2022/10/18 11:29:30;;;;;;;;;;;;;;;7.43;100.00;100682.09;4991513;28;19929;-88
2022/10/18 11:32:10;;;;;;;;;;;;;;;6.95;100.00;100684.56;4978933;28;19924;-91
2022/10/18 11:34:46;;;;;;;;;;;;;;;6.61;100.00;100679.75;4974190;28;20758;-88
2022/10/18 11:37:29;;;;;;;;;;;;;;;6.35;100.00;100677.41;4956464;28;19922;-88
2022/10/18 11:40:13;;;;;;;;;;;;;;;6.21;100.00;100680.22;4975080;28;20377;-91
2022/10/18 11:42:57;;;;;;;;;;;;;;;6.13;100.00;100672.41;4974289;28;20285;-91
2022/10/18 11:45:37;;;;;;;;;;;;;;;5.99;100.00;100679.56;4956494;28;20020;-91
2022/10/18 11:48:21;;;;;;;;;;;;;;;5.94;100.00;100676.94;4974368;28;19918;-89
2022/10/18 11:50:58;;;;;;;;;;;;;;;5.93;100.00;100672.56;4958054;28;20393;-86
2022/10/18 11:53:23;;;;;;;;;;;;;;;5.92;100.00;100673.47;4974648;28;19925;-86
2022/10/18 11:55:49;;;;;;;;;;;;;;;5.88;100.00;100676.13;4957684;28;19922;-88
2022/10/18 11:58:33;;;;;;;;;;;;;;;5.88;100.00;100668.25;4976543;28;19921;-90
2022/10/18 12:01:02;;;;;;;;;;;;;;;5.85;100.00;100665.63;4995917;28;20371;-92
2022/10/18 12:03:27;;;;;;;;;;;;;;;5.85;100.00;100666.50;4994333;28;19925;-87
2022/10/18 12:05:57;;;;;;;;;;;;;;;5.83;100.00;100660.41;4977769;28;19928;-88
2022/10/18 12:08:42;;;;;;;;;;;;;;;5.83;100.00;100663.03;4976801;28;19930;-88
2022/10/18 12:11:20;;;;;;;;;;;;;;;5.78;100.00;100660.44;4993245;28;19922;-86
2022/10/18 12:13:49;;;;;;;;;;;;;;;5.80;100.00;100653.38;4977817;28;19977;-87
2022/10/18 12:16:15;;;;;;;;;;;;;;;5.74;100.00;100649.94;4977833;28;19968;-87
2022/10/18 12:18:54;;;;;;;;;;;;;;;5.76;100.00;100649.06;4995546;28;19926;-91
2022/10/18 12:21:41;;;;;;;;;;;;;;;5.77;100.00;100648.16;4993657;28;19926;-89
2022/10/18 12:24:12;;;;;;;;;;;;;;;5.72;100.00;100649.97;4995566;28;19925;-89
2022/10/18 12:26:40;;;;;;;;;;;;;;;5.68;100.00;100653.53;4994098;28;19933;-88
2022/10/18 12:29:11;;;;;;;;;;;;;;;5.72;100.00;100649.97;4994570;28;19925;-90
2022/10/18 12:31:38;;;;;;;;;;;;;;;5.72;100.00;100649.09;4984994;28;19926;-88
2022/10/18 12:34:27;;;;;;;;;;;;;;;5.67;100.00;100646.50;4976599;28;20273;-87
2022/10/18 12:37:09;;;;;;;;;;;;;;;5.60;100.00;100650.06;4969555;28;19929;-88
2022/10/18 12:39:39;;;;;;;;;;;;;;;5.70;100.00;100648.25;4990882;28;20048;-88
2022/10/18 12:42:08;;;;;;;;;;;;;;;5.61;100.00;100642.16;4994571;28;19922;-89
2022/10/18 12:44:34;;;;;;;;;;;;;;;5.57;100.00;100645.72;4976057;28;20053;-88
2022/10/18 12:47:01;;;;;;;;;;;;;;;5.48;100.00;100648.44;4975025;28;19929;-88
2022/10/18 12:49:38;;;;;;;;;;;;;;;5.49;100.00;100639.66;4993076;28;19925;-90
2022/10/18 12:52:05;;;;;;;;;;;;;;;5.40;100.00;100639.75;4974058;28;19922;-87
2022/10/18 12:54:35;;;;;;;;;;;;;;;5.38;100.00;100646.78;4993202;28;19945;-88
2022/10/18 12:57:03;;;;;;;;;;;;;;;5.35;100.00;100644.16;4974798;28;20440;-90
2022/10/18 12:59:39;;;;;;;;;;;;;;;;;;;;;
2022/10/18 13:02:04;;;;;;;;;;;;;;;5.33;100.00;100643.28;4994049;28;19924;-88
2022/10/18 13:04:37;;;;;;;;;;;;;;;5.35;100.00;100644.16;4993409;28;20012;-88
2022/10/18 13:07:07;;;;;;;;;;;;;;;5.36;100.00;100641.53;4993512;28;19918;-89
2022/10/18 13:09:43;;;;;;;;;;;;;;;5.34;100.00;100640.63;4975369;28;20262;-89
2022/10/18 13:12:08;;;;;;;;;;;;;;;5.28;100.00;100644.22;4992933;28;19926;-89
2022/10/18 13:14:51;;;;;;;;;;;;;;;5.20;100.00;100642.50;4993235;28;19921;-88
2022/10/18 13:17:28;;;;;;;;;;;;;;;5.18;100.00;100639.03;4994314;28;19976;-87
2022/10/18 13:19:58;;;;;;;;;;;;;;;5.17;100.00;100638.16;4990832;28;19922;-89
2022/10/18 13:22:39;;;;;;;;;;;;;;;5.11;100.00;100639.97;4973296;28;19945;-87
2022/10/18 13:25:04;;;;;;;;;;;;;;;5.39;100.00;100632.72;4974070;28;20410;-88
2022/10/18 13:27:38;;;;;;;;;;;;;;;5.44;100.00;100636.19;4975029;28;19930;-87
2022/10/18 13:30:28;;;;;;;;;;;;;;;5.26;100.00;100635.47;4975037;28;19993;-87
2022/10/18 13:33:20;;;;;;;;;;;;;;;5.13;100.00;100641.69;4991953;28;20014;-88
2022/10/18 13:35:53;;;;;;;;;;;;;;;5.04;100.00;100639.09;4973733;28;19976;-87
2022/10/18 13:38:30;;;;;;;;;;;;;;;5.02;100.00;100644.38;4974362;28;20848;-89
2022/10/18 13:41:15;;;;;;;;;;;;;;;4.97;100.00;100637.41;4987927;28;19975;-88
2022/10/18 13:44:05;;;;;;;;;;;;;;;5.01;100.00;100636.50;4986490;28;20448;-87
2022/10/18 13:46:31;;;;;;;;;;;;;;;5.72;100.00;100638.59;4968383;28;20062;-88
2022/10/18 13:49:14;;;;;;;;;;;;;;;5.98;100.00;100636.63;4988180;28;20454;-87
2022/10/18 13:51:47;;;;;;;;;;;;;;;6.13;100.00;100632.06;4969551;28;20012;-88
2022/10/18 13:54:18;;;;;;;;;;;;;;;6.23;100.00;100635.47;4972802;28;20012;-87
2022/10/18 13:57:10;;;;;;;;;;;;;;;6.28;100.00;100639.78;4991794;28;19929;-87
2022/10/18 13:59:54;;;;;;;;;;;;;;;6.28;100.00;100638.91;4957370;28;19968;-87
2022/10/18 14:02:28;;;;;;;;;;;;;;;6.40;100.00;100629.97;4974933;28;20020;-88
2022/10/18 14:05:07;;;;;;;;;;;;;;;6.50;100.00;100634.25;4991836;28;19922;-91
2022/10/18 14:07:33;;;;;;;;;;;;;;;6.67;100.00;100631.38;4973103;28;20012;-88
2022/10/18 14:09:59;;;;;;;;;;;;;;;6.69;100.00;100634.91;4992572;28;20393;-89
2022/10/18 14:12:27;;;;;;;;;;;;;;;6.72;100.00;100640.97;4990723;28;20539;-92
2022/10/18 14:15:20;;;;;;;;;;;;;;;6.88;100.00;100643.41;5058251;28;19921;-86
2022/10/18 14:17:49;;;;;;;;;;;;;;;7.12;100.00;100639.56;5061956;27;19981;-85
2022/10/18 14:20:35;;;;;;;;;;;;;;;7.09;100.00;100635.19;5067519;27;19921;-88
2022/10/18 14:23:14;;;;;;;;;;;;;;;7.27;100.00;100644.59;5079227;27;19982;-86
2022/10/18 14:25:44;;;;;;;;;;;;;;;7.22;100.00;100643.78;5023500;28;19929;-86
2022/10/18 14:28:11;;;;;;;;;;;;;;;7.35;100.00;100643.59;5023899;28;19918;-85
2022/10/18 14:30:51;;;;;;;;;;;;;;;7.48;100.00;100644.25;5053058;28;19933;-86
2022/10/18 14:33:24;;;;;;;;;;;;;;;7.53;100.00;100637.13;5024756;28;19926;-87
2022/10/18 14:36:00;;;;;;;;;;;;;;;7.61;100.00;100638.75;5018567;28;19928;-86
2022/10/18 14:38:30;;;;;;;;;;;;;;;7.60;100.00;100637.00;5020695;28;19936;-88
2022/10/18 14:41:06;;;;;;;;;;;;;;;7.73;100.00;100635.03;5021736;28;19978;-88
2022/10/18 14:43:31;;;;;;;;;;;;;;;7.80;100.00;100638.41;5023525;28;19966;-86
2022/10/18 14:46:07;;;;;;;;;;;;;;;7.84;100.00;100628.72;5022681;28;20337;-88
2022/10/18 14:48:32;;;;;;;;;;;;;;;7.96;100.00;100629.34;5024667;28;20364;-86
2022/10/18 14:50:59;;;;;;;;;;;;;;;8.05;100.00;100628.28;5020888;28;19932;-89
2022/10/18 14:53:53;;;;;;;;;;;;;;;8.15;100.00;100623.69;5023157;28;19925;-90
2022/10/18 14:56:40;;;;;;;;;;;;;;;8.06;100.00;100627.41;5033230;28;19973;-92
2022/10/18 14:59:33;;;;;;;;;;;;;;;8.22;100.00;100627.09;5023671;28;20497;-89
2022/10/18 15:02:19;;;;;;;;;;;;;;;8.25;100.00;100619.09;5021679;28;19926;-90
2022/10/18 15:05:14;;;;;;;;;;;;;;;8.33;100.00;100627.78;5092059;27;20393;-93
2022/10/18 15:07:40;;;;;;;;;;;;;;;8.41;100.00;100619.66;5059042;28;20339;-89
2022/10/18 15:10:12;;;;;;;;;;;;;;;8.39;100.00;100621.47;5021964;28;19925;-90
2022/10/18 15:12:46;;;;;;;;;;;;;;;8.42;100.00;100630.19;5022997;28;19971;-90
2022/10/18 15:15:19;;;;;;;;;;;;;;;8.45;100.00;100630.16;5023792;28;19928;-90
2022/10/18 15:17:44;;;;;;;;;;;;;;;8.50;100.00;100625.69;5023517;28;20098;-90
2022/10/18 15:20:30;;;;;;;;;;;;;;;8.47;100.00;100624.84;5024982;28;19939;-89
2022/10/18 15:23:15;;;;;;;;;;;;;;;8.44;100.00;100628.44;5021188;28;20348;-89
2022/10/18 15:25:44;;;;;;;;;;;;;;;8.53;100.00;100625.59;5024173;28;19921;-89
2022/10/18 15:28:18;;;;;;;;;;;;;;;8.54;100.00;100626.47;5008751;28;19929;-90
2022/10/18 15:30:44;;;;;;;;;;;;;;;8.56;100.00;100623.81;5040901;28;19983;-89
2022/10/18 15:33:20;;;;;;;;;;;;;;;8.63;100.00;100628.94;5006437;28;20371;-88
2022/10/18 15:35:46;;;;;;;;;;;;;;;8.43;100.00;100624.06;5056746;27;19960;-86
2022/10/18 15:38:31;;;;;;;;;;;;;;;7.77;100.00;100623.53;5042226;28;20395;-93
2022/10/18 15:40:57;;;;;;;;;;;;;;;7.59;100.00;100624.72;5013062;28;19921;-89
2022/10/18 15:43:22;;;;;;;;;;;;;;;7.55;100.00;100622.19;5010165;28;19913;-90
2022/10/18 15:45:48;;;;;;;;;;;;;;;7.46;100.00;100617.91;5105941;27;19928;-89
2022/10/18 15:48:13;;;;;;;;;;;;;;;7.40;100.00;100613.63;5010200;28;19956;-88
2022/10/18 15:50:44;;;;;;;;;;;;;;;7.36;100.00;100616.34;5011536;28;20001;-87
2022/10/18 15:53:29;;;;;;;;;;;;;;;7.24;100.00;100622.66;5010772;28;20012;-91
2022/10/18 15:55:57;;;;;;;;;;;;;;;7.24;100.00;100622.66;5009822;28;19957;-86
2022/10/18 15:58:28;;;;;;;;;;;;;;;7.22;100.00;100617.41;5104782;27;19922;-88
2022/10/18 16:01:05;;;;;;;;;;;;;;;7.15;100.00;100618.41;5070251;27;19921;-89
2022/10/18 16:03:37;;;;;;;;;;;;;;;7.17;100.00;100614.00;5010774;28;19925;-87
2022/10/18 16:06:04;;;;;;;;;;;;;;;7.15;100.00;100613.16;5009786;28;20029;-87
2022/10/18 16:08:30;;;;;;;;;;;;;;;7.13;100.00;100614.91;5000219;28;19929;-87
2022/10/18 16:10:57;;;;;;;;;;;;;;;7.10;100.00;100609.72;5008284;28;19921;-88
2022/10/18 16:13:23;;;;;;;;;;;;;;;7.15;100.00;100605.25;5005681;28;19921;-89
2022/10/18 16:15:48;;;;;;;;;;;;;;;7.12;100.00;100600.03;5008919;28;19931;-88
2022/10/18 16:18:15;;;;;;;;;;;;;;;7.15;100.00;100607.88;5007128;28;19926;-87
2022/10/18 16:20:40;;;;;;;;;;;;;;;7.17;100.00;100599.94;5040134;28;19922;-88
2022/10/18 16:23:24;;;;;;;;;;;;;;;7.09;100.00;100603.56;5008935;28;19970;-87
2022/10/18 16:26:01;;;;;;;;;;;;;;;7.11;100.00;100606.16;5008663;28;19956;-88
2022/10/18 16:28:31;;;;;;;;;;;;;;;7.06;100.00;100608.88;5010114;28;19921;-88
2022/10/18 16:31:00;;;;;;;;;;;;;;;7.06;100.00;100603.59;5069738;27;20033;-89
2022/10/18 16:33:26;;;;;;;;;;;;;;;7.06;100.00;100600.97;5008595;28;19985;-89
2022/10/18 16:35:54;;;;;;;;;;;;;;;7.08;100.00;100601.84;5008095;28;20008;-87
2022/10/18 16:38:46;;;;;;;;;;;;;;;7.06;100.00;100595.69;5006356;28;19917;-88
2022/10/18 16:41:14;;;;;;;;;;;;;;;7.02;100.00;100596.66;5011307;28;20036;-87
2022/10/18 16:43:42;;;;;;;;;;;;;;;7.12;100.00;100597.38;5009302;28;19920;-89
2022/10/18 16:46:18;;;;;;;;;;;;;;;7.04;100.00;100599.28;5009415;28;19924;-87
2022/10/18 16:48:44;;;;;;;;;;;;;;;7.01;100.00;100601.94;5008654;28;19953;-87
2022/10/18 16:51:10;;;;;;;;;;;;;;;7.04;100.00;100602.78;5002196;28;19926;-88
2022/10/18 16:53:35;;;;;;;;;;;;;;;7.05;100.00;100609.78;5040496;28;20368;-87
2022/10/18 16:56:01;;;;;;;;;;;;;;;7.05;100.00;100615.06;5009285;28;19963;-89
2022/10/18 16:58:28;;;;;;;;;;;;;;;7.05;100.00;100620.34;5009476;28;19964;-88
2022/10/18 17:00:53;;;;;;;;;;;;;;;7.07;100.00;100615.91;5006503;28;19926;-88
2022/10/18 17:03:19;;;;;;;;;;;;;;;7.03;100.00;100623.88;5006188;28;20433;-88
2022/10/18 17:09:02;;;;;;;;;;;;;;;7.07;100.00;100633.50;5025551;28;20269;-92
2022/10/18 17:11:50;;;;;;;;;;;;;;;6.99;100.00;100633.59;5014809;28;19921;-90
2022/10/18 17:14:15;;;;;;;;;;;;;;;6.98;100.00;100642.38;5054835;28;20407;-87
2022/10/18 17:16:41;;;;;;;;;;;;;;;7.01;100.00;100642.34;5068792;27;19960;-88
2022/10/18 17:19:09;;;;;;;;;;;;;;;7.01;100.00;100646.75;5073992;27;19921;-87
2022/10/18 17:21:34;;;;;;;;;;;;;;;7.05;100.00;100649.31;5037317;28;19918;-88
2022/10/18 17:24:04;;;;;;;;;;;;;;;7.08;100.00;100654.53;5076774;27;19923;-88
2022/10/18 17:26:42;;;;;;;;;;;;;;;6.99;100.00;100648.50;5057874;28;19959;-89
2022/10/18 17:29:08;;;;;;;;;;;;;;;7.02;100.00;100648.47;5073530;27;20439;-88
2022/10/18 17:31:34;;;;;;;;;;;;;;;7.07;100.00;100638.75;5074838;27;19919;-88
2022/10/18 17:34:00;;;;;;;;;;;;;;;7.04;100.00;100647.56;5076472;27;19921;-88
2022/10/18 17:36:25;;;;;;;;;;;;;;;7.04;100.00;100654.63;5071776;27;19977;-87
2022/10/18 17:38:54;;;;;;;;;;;;;;;7.07;100.00;100647.53;5030780;28;19976;-88
2022/10/18 17:41:22;;;;;;;;;;;;;;;7.22;100.00;100656.09;5009729;28;20040;-89
2022/10/18 17:43:47;;;;;;;;;;;;;;;7.16;100.00;100650.91;5040873;28;19921;-88
2022/10/18 17:46:13;;;;;;;;;;;;;;;7.25;100.00;100658.69;5103904;27;19944;-88
2022/10/18 17:48:38;;;;;;;;;;;;;;;7.21;100.00;100651.72;5009237;28;19974;-87
2022/10/18 17:51:07;;;;;;;;;;;;;;;7.22;100.00;100659.59;5007859;28;20378;-87
2022/10/18 17:53:33;;;;;;;;;;;;;;;7.13;100.00;100657.09;5008228;28;19924;-88
2022/10/18 17:55:59;;;;;;;;;;;;;;;7.15;100.00;100659.69;5005183;28;19922;-88
2022/10/18 17:58:25;;;;;;;;;;;;;;;7.20;100.00;100663.16;4999618;28;19921;-89
2022/10/18 18:00:50;;;;;;;;;;;;;;;7.18;100.00;100664.94;5064712;27;19939;-88
2022/10/18 18:03:15;;;;;;;;;;;;;;;7.23;100.00;100663.13;5009356;28;19918;-89
2022/10/18 18:05:41;;;;;;;;;;;;;;;7.22;100.00;100661.38;5008108;28;19917;-89
2022/10/18 18:08:06;;;;;;;;;;;;;;;7.19;100.00;100666.69;5101397;27;19918;-89
2022/10/18 18:10:32;;;;;;;;;;;;;;;7.17;100.00;100668.47;5008035;28;19961;-88
2022/10/18 18:12:57;;;;;;;;;;;;;;;7.21;100.00;100670.16;5001314;28;20319;-89
2022/10/18 18:15:22;;;;;;;;;;;;;;;7.19;100.00;100671.94;5051052;28;19929;-88
2022/10/18 18:17:47;;;;;;;;;;;;;;;7.16;100.00;100672.00;5036322;28;19926;-87
2022/10/18 18:20:13;;;;;;;;;;;;;;;7.14;100.00;100663.25;5057108;28;19931;-88
2022/10/18 18:22:40;;;;;;;;;;;;;;;7.16;100.00;100658.81;5004428;28;20004;-88